Time;durP1;ratioP1;P1;durP2;ratioP2;P2;SDS_P1;SDS_P2;PMS_P1;PMS_P2;Temp;Humidity;BMP_temperature;BMP_pressure;BME280_temperature;BME280_humidity;BME280_pressure;Samples;Min_cycle;Max_cycle;Signal;HPM_P1;HPM_P2
2023/03/17 00:01:52;;;;;;;146.20;89.10;;;;;;;-2.16;100.00;99694.26;108844;1250;1002343;-72
2023/03/17 00:04:21;;;;;;;130.30;82.40;;;;;;;-2.14;100.00;99694.77;109683;1250;59901;-72
2023/03/17 00:06:48;;;;;;;133.40;87.60;;;;;;;-2.09;100.00;99694.58;109608;1251;64715;-72
2023/03/17 00:09:17;;;;;;;122.00;77.80;;;;;;;-2.04;100.00;99697.68;109637;1250;59800;-71
2023/03/17 00:11:45;;;;;;;108.90;68.70;;;;;;;-2.03;100.00;99690.55;109636;1250;59759;-71
2023/03/17 00:14:12;;;;;;;120.00;78.20;;;;;;;-1.98;100.00;99687.56;109656;1250;67999;-71
2023/03/17 00:16:47;;;;;;;118.00;77.30;;;;;;;-1.93;100.00;99686.84;109661;1250;60070;-71
2023/03/17 00:19:16;;;;;;;114.50;77.20;;;;;;;-1.92;100.00;99686.66;109474;1251;63831;-71
2023/03/17 00:21:44;;;;;;;104.40;69.60;;;;;;;-1.97;100.00;99690.86;109625;1250;59816;-71
2023/03/17 00:24:11;;;;;;;115.30;74.20;;;;;;;-2.05;100.00;99690.89;109606;1250;59863;-71
2023/03/17 00:26:39;;;;;;;108.50;70.90;;;;;;;-2.12;100.00;99690.06;109626;1250;67535;-71
2023/03/17 00:29:07;;;;;;;110.90;70.10;;;;;;;-2.14;100.00;99694.25;109624;1254;60321;-71
2023/03/17 00:31:34;;;;;;;103.30;67.40;;;;;;;-2.16;100.00;99697.56;109647;1250;64993;-71
2023/03/17 00:34:00;;;;;;;99.90;65.80;;;;;;;-2.20;100.00;99699.86;109605;1250;59747;-71
2023/03/17 00:36:29;;;;;;;105.40;67.10;;;;;;;-2.25;100.00;99699.70;109592;1250;59834;-71
2023/03/17 00:38:57;;;;;;;108.00;67.60;;;;;;;-2.32;100.00;99695.36;109673;1254;66686;-71
2023/03/17 00:41:24;;;;;;;102.40;65.90;;;;;;;-2.38;100.00;99690.52;109663;1251;61503;-71
2023/03/17 00:43:51;;;;;;;96.80;60.60;;;;;;;-2.39;100.00;99694.87;109583;1250;64764;-71
2023/03/17 00:46:27;;;;;;;94.50;60.30;;;;;;;-2.34;100.00;99692.07;109287;1250;59837;-71
2023/03/17 00:48:54;;;;;;;92.00;60.90;;;;;;;-2.34;100.00;99693.45;109620;1250;59826;-71
2023/03/17 00:51:20;;;;;;;102.90;64.00;;;;;;;-2.39;100.00;99701.48;109645;1250;67480;-71
2023/03/17 00:53:47;;;;;;;98.50;63.00;;;;;;;-2.48;100.00;99707.24;108873;1251;1002745;-71
2023/03/17 00:56:16;;;;;;;88.80;59.60;;;;;;;-2.54;100.00;99711.09;108878;1250;1002533;-71
2023/03/17 00:58:44;;;;;;;103.10;64.60;;;;;;;-2.61;100.00;99707.27;109598;1251;59870;-71
2023/03/17 01:01:11;;;;;;;104.30;64.30;;;;;;;-2.66;100.00;99706.94;109663;1250;60002;-71
2023/03/17 01:03:38;;;;;;;98.20;62.00;;;;;;;-2.71;100.00;99706.78;108929;1250;1002387;-71
2023/03/17 01:06:09;;;;;;;98.60;62.10;;;;;;;-2.77;100.00;99712.18;109612;1250;60170;-71
2023/03/17 01:08:37;;;;;;;102.90;64.00;;;;;;;-2.83;100.00;99715.14;109654;1251;65037;-71
2023/03/17 01:11:04;;;;;;;103.10;65.40;;;;;;;-2.89;100.00;99715.33;109417;1251;59935;-71
2023/03/17 01:13:31;;;;;;;102.70;69.10;;;;;;;-2.94;100.00;99716.21;108859;1251;1015861;-71
2023/03/17 01:15:57;;;;;;;109.10;69.00;;;;;;;-2.94;100.00;99709.60;109312;1250;66909;-71
2023/03/17 01:18:24;;;;;;;105.00;70.40;;;;;;;-2.92;100.00;99704.03;108881;1251;1003030;-71
2023/03/17 01:20:52;;;;;;;106.80;68.10;;;;;;;-2.94;100.00;99701.77;109619;1251;64746;-71
2023/03/17 01:23:18;;;;;;;108.80;70.50;;;;;;;-2.99;100.00;99700.89;108821;1254;1003019;-71
2023/03/17 01:25:45;;;;;;;115.20;71.90;;;;;;;-3.00;100.00;99697.08;109689;1250;59851;-71
2023/03/17 01:28:13;;;;;;;110.50;71.80;;;;;;;-2.97;100.00;99696.39;109659;1250;68283;-71
2023/03/17 01:30:41;;;;;;;113.30;73.90;;;;;;;-2.97;100.00;99702.65;109616;1254;60953;-71
2023/03/17 01:33:09;;;;;;;107.10;71.70;;;;;;;-3.01;100.00;99700.56;108903;1251;1003014;-71
2023/03/17 01:35:37;;;;;;;105.90;68.90;;;;;;;-3.06;100.00;99700.21;109256;1250;59768;-71
2023/03/17 01:38:05;;;;;;;109.40;69.90;;;;;;;-3.10;100.00;99705.61;108854;1250;1002730;-71
2023/03/17 01:40:35;;;;;;;113.60;69.80;;;;;;;-3.07;100.00;99708.23;108837;1250;1002881;-71
2023/03/17 01:43:16;;;;;;;104.80;66.60;;;;;;;-3.04;100.00;99699.34;109622;1251;60763;-71
2023/03/17 01:46:21;;;;;;;103.10;66.80;;;;;;;-3.02;100.00;99697.79;109627;1250;63676;-71
2023/03/17 01:48:59;;;;;;;97.50;61.60;;;;;;;-3.01;100.00;99694.29;108886;1251;1002129;-71
2023/03/17 01:51:30;;;;;;;93.10;59.50;;;;;;;-2.97;100.00;99687.86;108858;1250;1002830;-72
2023/03/17 01:54:00;;;;;;;100.20;60.90;;;;;;;-2.92;100.00;99688.73;109397;1251;66775;-71
2023/03/17 01:56:27;;;;;;;91.80;59.40;;;;;;;-2.86;100.00;99689.23;109644;1250;60741;-71
2023/03/17 01:58:58;;;;;;;89.40;59.70;;;;;;;-2.84;100.00;99681.76;109620;1251;64760;-71
2023/03/17 02:01:32;;;;;;;96.70;62.50;;;;;;;-2.82;100.00;99678.11;109610;1250;59785;-71
2023/03/17 02:03:59;;;;;;;95.40;61.90;;;;;;;-2.82;100.00;99673.77;109507;1250;59802;-71
2023/03/17 02:06:26;;;;;;;92.80;60.30;;;;;;;-2.83;100.00;99677.59;109624;1250;66743;-71
2023/03/17 02:08:53;;;;;;;99.10;62.50;;;;;;;-2.84;100.00;99679.15;109604;1250;59866;-71
2023/03/17 02:11:21;;;;;;;92.60;60.80;;;;;;;-2.86;100.00;99677.95;109604;1251;63686;-71
2023/03/17 02:13:47;;;;;;;98.90;60.80;;;;;;;-2.85;100.00;99676.02;109364;1250;59827;-71
2023/03/17 02:16:16;;;;;;;98.00;65.20;;;;;;;-2.84;100.00;99675.49;109606;1250;59770;-71
2023/03/17 02:18:43;;;;;;;102.40;67.10;;;;;;;-2.85;100.00;99674.64;109646;1251;67467;-71
2023/03/17 02:21:26;;;;;;;100.90;66.80;;;;;;;-2.86;100.00;99669.06;108815;1251;1002190;-72
2023/03/17 02:23:53;;;;;;;105.90;67.40;;;;;;;-2.86;100.00;99662.98;109662;1251;64775;-71
2023/03/17 02:26:23;;;;;;;107.90;72.00;;;;;;;-2.84;100.00;99662.29;109603;1250;59803;-71
2023/03/17 02:28:50;;;;;;;104.00;67.30;;;;;;;-2.79;100.00;99656.71;109476;1251;59811;-72
2023/03/17 02:31:16;;;;;;;115.30;74.90;;;;;;;-2.73;100.00;99651.13;109638;1250;67468;-71
2023/03/17 02:33:43;;;;;;;115.40;74.70;;;;;;;-2.70;100.00;99645.73;108835;1251;1002813;-71
2023/03/17 02:36:09;;;;;;;113.30;71.10;;;;;;;-2.69;100.00;99637.89;108861;1250;1002234;-71
2023/03/17 02:38:36;;;;;;;110.10;73.30;;;;;;;-2.67;100.00;99636.16;108825;1250;1003161;-71
2023/03/17 02:41:06;;;;;;;114.20;72.40;;;;;;;-2.67;100.00;99626.60;109611;1251;59889;-71
2023/03/17 02:43:32;;;;;;;107.60;72.60;;;;;;;-2.68;100.00;99623.64;108849;1251;1002437;-71
2023/03/17 02:46:00;;;;;;;108.50;71.80;;;;;;;-2.71;100.00;99623.81;108880;1251;1002933;-72
2023/03/17 02:48:27;;;;;;;107.30;71.60;;;;;;;-2.76;100.00;99630.44;109600;1251;64745;-71
2023/03/17 02:50:53;;;;;;;106.50;67.70;;;;;;;-2.82;100.00;99639.15;109630;1251;59875;-72
2023/03/17 02:53:20;;;;;;;115.40;70.50;;;;;;;-2.88;100.00;99639.52;109387;1250;59850;-71
2023/03/17 02:55:47;;;;;;;119.60;75.90;;;;;;;-2.94;100.00;99636.58;109654;1250;65634;-71
2023/03/17 02:58:13;;;;;;;107.50;70.60;;;;;;;-2.98;100.00;99624.94;109641;1250;60067;-71
2023/03/17 03:00:43;;;;;;;110.00;73.80;;;;;;;-3.02;100.00;99617.81;109598;1250;64119;-72
2023/03/17 03:03:09;;;;;;;111.70;72.60;;;;;;;-3.04;100.00;99612.09;109628;1251;59753;-71
2023/03/17 03:05:36;;;;;;;115.00;73.10;;;;;;;-3.05;100.00;99615.91;109595;1250;59810;-72
2023/03/17 03:08:03;;;;;;;111.70;76.10;;;;;;;-3.06;100.00;99618.16;109627;1250;66787;-72
2023/03/17 03:10:29;;;;;;;119.80;76.00;;;;;;;-3.05;100.00;99618.17;109649;1251;60706;-72
2023/03/17 03:12:56;;;;;;;111.50;74.70;;;;;;;-3.02;100.00;99614.35;109358;1251;65411;-72
2023/03/17 03:15:22;;;;;;;110.20;70.40;;;;;;;-3.01;100.00;99611.04;109570;1251;59843;-71
2023/03/17 03:17:50;;;;;;;109.00;70.90;;;;;;;-3.02;100.00;99606.52;109616;1250;59813;-72
2023/03/17 03:20:17;;;;;;;109.00;72.00;;;;;;;-3.01;100.00;99607.91;109723;1251;67778;-72
2023/03/17 03:22:44;;;;;;;111.00;70.90;;;;;;;-3.00;100.00;99609.13;109647;1251;59835;-72
2023/03/17 03:25:10;;;;;;;108.20;70.20;;;;;;;-2.97;100.00;99619.91;109599;1250;64719;-72
2023/03/17 03:27:37;;;;;;;107.70;66.70;;;;;;;-2.96;100.00;99624.41;109632;1251;59837;-72
2023/03/17 03:30:06;;;;;;;107.70;66.30;;;;;;;-2.95;100.00;99628.59;109632;1250;59807;-72
2023/03/17 03:32:33;;;;;;;97.40;64.20;;;;;;;-2.96;100.00;99632.05;108626;1250;1002339;-72
2023/03/17 03:35:00;;;;;;;91.90;64.00;;;;;;;-2.99;100.00;99630.50;109601;1251;61036;-72
2023/03/17 03:37:27;;;;;;;97.90;63.10;;;;;;;-3.04;100.00;99625.83;109592;1251;65080;-72
2023/03/17 03:39:54;;;;;;;96.00;64.80;;;;;;;-3.07;100.00;99617.66;109612;1251;59969;-71
2023/03/17 03:42:21;;;;;;;100.40;63.30;;;;;;;-3.09;100.00;99621.65;109644;1250;59688;-72
2023/03/17 03:44:47;;;;;;;104.20;66.90;;;;;;;-3.12;100.00;99624.27;109592;1250;67742;-72
2023/03/17 03:47:14;;;;;;;101.00;67.90;;;;;;;-3.15;100.00;99625.66;109587;1250;60734;-71
2023/03/17 03:49:40;;;;;;;107.40;67.80;;;;;;;-3.17;100.00;99623.40;109638;1251;64781;-72
2023/03/17 03:52:07;;;;;;;103.90;66.90;;;;;;;-3.18;100.00;99619.77;109563;1251;59779;-71
2023/03/17 03:54:34;;;;;;;105.50;65.00;;;;;;;-3.17;100.00;99621.84;109617;1251;59831;-71
2023/03/17 03:57:00;;;;;;;103.40;66.90;;;;;;;-3.15;100.00;99627.74;109568;1251;66454;-70
2023/03/17 03:59:28;;;;;;;104.60;67.40;;;;;;;-3.13;100.00;99635.39;109615;1251;61116;-71
2023/03/17 04:01:55;;;;;;;110.40;69.70;;;;;;;-3.11;100.00;99634.17;109628;1250;63735;-71
2023/03/17 04:04:21;;;;;;;108.00;70.40;;;;;;;-3.12;100.00;99632.79;108815;1250;1003065;-71
2023/03/17 04:06:48;;;;;;;109.50;69.80;;;;;;;-3.14;100.00;99640.77;109641;1251;59812;-71
2023/03/17 04:09:15;;;;;;;114.40;72.20;;;;;;;-3.14;100.00;99645.64;109333;1251;59836;-71
2023/03/17 04:11:41;;;;;;;105.80;68.90;;;;;;;-3.14;100.00;99643.21;109633;1251;59781;-71
2023/03/17 04:14:08;;;;;;;103.50;69.50;;;;;;;-3.15;100.00;99640.77;109603;1250;59809;-71
2023/03/17 04:16:35;;;;;;;101.80;65.60;;;;;;;-3.19;100.00;99642.52;109637;1250;60021;-71
2023/03/17 04:19:02;;;;;;;106.40;65.70;;;;;;;-3.23;100.00;99642.00;109667;1250;59749;-71
2023/03/17 04:21:28;;;;;;;101.50;65.30;;;;;;;-3.27;100.00;99643.23;109582;1251;67002;-72
2023/03/17 04:23:55;;;;;;;109.00;68.20;;;;;;;-3.31;100.00;99644.27;109648;1250;59906;-71
2023/03/17 04:26:22;;;;;;;104.30;68.20;;;;;;;-3.36;100.00;99642.54;109613;1250;63663;-72
2023/03/17 04:28:48;;;;;;;105.00;68.40;;;;;;;-3.39;100.00;99641.49;109623;1250;59849;-71
2023/03/17 04:31:15;;;;;;;99.50;68.20;;;;;;;-3.39;100.00;99638.54;109628;1251;59799;-71
2023/03/17 04:33:42;;;;;;;107.50;67.60;;;;;;;-3.38;100.00;99642.89;109599;1250;74399;-71
2023/03/17 04:36:16;;;;;;;109.50;68.90;;;;;;;-3.39;100.00;99636.62;109612;1250;59833;-71
2023/03/17 04:38:44;;;;;;;105.90;64.40;;;;;;;-3.40;100.00;99635.23;109580;1250;65104;-71
2023/03/17 04:41:11;;;;;;;99.90;65.70;;;;;;;-3.38;100.00;99633.34;109605;1250;59785;-71
2023/03/17 04:43:37;;;;;;;112.60;71.70;;;;;;;-3.33;100.00;99621.34;109612;1250;59848;-71
2023/03/17 04:46:04;;;;;;;118.60;72.20;;;;;;;-3.28;100.00;99616.46;109342;1250;68059;-71
2023/03/17 04:48:31;;;;;;;106.00;70.50;;;;;;;-3.25;100.00;99625.15;109679;1250;59859;-71
2023/03/17 04:50:58;;;;;;;100.40;62.80;;;;;;;-3.23;100.00;99628.46;109626;1250;63768;-71
2023/03/17 04:53:24;;;;;;;116.20;73.30;;;;;;;-3.22;100.00;99628.80;109574;1250;59973;-71
2023/03/17 04:55:51;;;;;;;116.50;73.50;;;;;;;-3.20;100.00;99627.59;109322;1250;59833;-71
2023/03/17 04:58:17;;;;;;;112.00;73.00;;;;;;;-3.17;100.00;99622.19;109640;1250;67451;-72
2023/03/17 05:00:44;;;;;;;117.60;73.10;;;;;;;-3.16;100.00;99622.36;109587;1250;60758;-71
2023/03/17 05:03:11;;;;;;;102.40;69.70;;;;;;;-3.13;100.00;99631.56;109580;1250;62509;-71
2023/03/17 05:05:38;;;;;;;104.60;67.90;;;;;;;-3.09;100.00;99637.81;109393;1250;59870;-71
2023/03/17 05:08:04;;;;;;;105.60;69.70;;;;;;;-3.04;100.00;99640.59;108801;1250;1002218;-71
2023/03/17 05:10:31;;;;;;;111.80;72.10;;;;;;;-2.98;100.00;99636.07;109598;1250;67496;-71
2023/03/17 05:12:58;;;;;;;105.20;72.00;;;;;;;-2.79;100.00;99631.84;109391;1250;60130;-71
2023/03/17 05:15:25;;;;;;;106.00;70.30;;;;;;;-2.66;100.00;99634.58;109604;1250;63985;-72
2023/03/17 05:17:51;;;;;;;102.90;66.90;;;;;;;-2.61;100.00;99638.23;109608;1250;60192;-71
2023/03/17 05:20:18;;;;;;;99.90;65.30;;;;;;;-2.50;100.00;99639.58;109600;1250;59782;-71
2023/03/17 05:22:45;;;;;;;101.80;66.30;;;;;;;-2.18;100.00;99640.30;109637;1250;66546;-71
2023/03/17 05:25:12;;;;;;;89.60;60.10;;;;;;;-1.85;100.00;99640.81;109660;1250;59845;-72
2023/03/17 05:27:40;;;;;;;87.90;59.10;;;;;;;-1.64;100.00;99642.41;109594;1250;64751;-71
2023/03/17 05:30:07;;;;;;;87.00;59.60;;;;;;;-1.54;100.00;99637.11;109551;1250;60228;-71
2023/03/17 05:32:35;;;;;;;77.30;56.20;;;;;;;-1.25;100.00;99636.70;109623;1250;59835;-71
2023/03/17 05:35:02;;;;;;;83.10;56.20;;;;;;;-0.97;100.00;99639.39;109672;1250;65193;-72
2023/03/17 05:37:29;;;;;;;81.90;54.20;;;;;;;-0.70;100.00;99634.59;109638;1250;60711;-72
2023/03/17 05:39:56;;;;;;;78.10;53.80;;;;;;;-0.48;100.00;99632.24;109380;1250;64290;-72
2023/03/17 05:42:23;;;;;;;80.10;54.30;;;;;;;-0.32;100.00;99637.80;109602;1250;59739;-72
2023/03/17 05:44:49;;;;;;;77.30;54.40;;;;;;;-0.14;100.00;99636.36;109609;1250;59865;-73
2023/03/17 05:47:16;;;;;;;77.70;52.40;;;;;;;0.04;100.00;99635.24;109623;1250;67847;-72
2023/03/17 05:49:42;;;;;;;68.60;49.30;;;;;;;0.20;100.00;99638.49;109590;1251;61077;-72
2023/03/17 05:52:09;;;;;;;75.00;51.40;;;;;;;0.35;100.00;99644.75;109601;1250;64999;-72
2023/03/17 05:54:36;;;;;;;74.80;50.40;;;;;;;0.49;100.00;99644.18;109681;1250;59786;-71
2023/03/17 05:57:02;;;;;;;73.30;48.90;;;;;;;0.60;100.00;99641.91;109610;1250;59754;-71
2023/03/17 05:59:29;;;;;;;76.20;51.30;;;;;;;0.61;100.00;99642.08;109610;1250;67737;-71
2023/03/17 06:01:55;;;;;;;68.50;47.60;;;;;;;0.75;100.00;99642.02;109636;1250;66708;-72
2023/03/17 06:04:22;;;;;;;70.20;47.90;;;;;;;0.69;100.00;99641.77;109579;1250;64189;-72
2023/03/17 06:06:49;;;;;;;74.60;47.50;;;;;;;0.59;100.00;99642.98;109658;1250;59761;-72
2023/03/17 06:09:15;;;;;;;67.50;46.10;;;;;;;0.51;100.00;99643.11;109596;1250;59918;-72
2023/03/17 06:11:42;;;;;;;66.20;45.10;;;;;;;0.42;100.00;99642.52;109624;1250;66618;-72
2023/03/17 06:14:09;;;;;;;66.50;42.90;;;;;;;0.39;100.00;99648.00;109627;1250;60978;-72
2023/03/17 06:16:36;;;;;;;63.20;44.40;;;;;;;0.37;100.00;99650.66;109610;1250;64834;-73
2023/03/17 06:19:02;;;;;;;68.10;45.40;;;;;;;0.35;100.00;99649.63;109566;1250;59900;-72
2023/03/17 06:21:29;;;;;;;59.00;42.80;;;;;;;0.34;100.00;99651.05;109609;1250;59825;-72
2023/03/17 06:23:56;;;;;;;67.80;44.10;;;;;;;0.33;100.00;99652.98;109555;1250;66798;-72
2023/03/17 06:26:23;;;;;;;62.20;43.40;;;;;;;0.32;100.00;99649.68;109340;1250;60806;-72
2023/03/17 06:28:49;;;;;;;63.10;45.10;;;;;;;0.37;100.00;99650.30;109592;1250;64747;-72
2023/03/17 06:31:16;;;;;;;61.30;42.40;;;;;;;0.41;100.00;99652.51;109649;1250;59816;-72
2023/03/17 06:33:43;;;;;;;60.00;42.40;;;;;;;0.45;100.00;99649.84;109655;1250;59827;-72
2023/03/17 06:36:12;;;;;;;59.70;40.80;;;;;;;0.48;100.00;99647.86;109609;1250;67763;-72
2023/03/17 06:38:39;;;;;;;57.40;38.00;;;;;;;0.54;100.00;99649.70;109687;1250;60772;-72
2023/03/17 06:41:06;;;;;;;52.40;36.20;;;;;;;0.61;100.00;99649.05;109589;1250;64223;-72
2023/03/17 06:43:32;;;;;;;51.80;33.40;;;;;;;0.68;100.00;99653.84;109581;1250;59809;-72
2023/03/17 06:46:00;;;;;;;50.20;34.30;;;;;;;0.75;100.00;99654.09;109593;1251;59868;-72
2023/03/17 06:48:27;;;;;;;51.20;33.90;;;;;;;0.82;100.00;99653.63;109676;1250;67512;-72
2023/03/17 06:50:54;;;;;;;46.50;32.80;;;;;;;0.87;100.00;99653.18;109337;1250;59955;-73
2023/03/17 06:53:20;;;;;;;48.10;32.50;;;;;;;0.93;100.00;99648.71;109639;1250;65317;-72
2023/03/17 06:55:47;;;;;;;48.20;32.10;;;;;;;0.98;100.00;99649.30;109634;1250;59671;-72
2023/03/17 06:58:14;;;;;;;48.60;32.10;;;;;;;1.01;100.00;99646.83;109443;1250;59891;-71
2023/03/17 07:00:44;;;;;;;48.90;31.10;;;;;;;1.05;100.00;99643.42;109647;1250;68078;-71
2023/03/17 07:03:10;;;;;;;44.90;31.00;;;;;;;1.11;100.00;99652.76;109681;1250;59918;-71
2023/03/17 07:05:39;;;;;;;47.30;32.60;;;;;;;1.19;100.00;99653.66;109614;1250;65019;-71
2023/03/17 07:08:05;;;;;;;47.30;32.80;;;;;;;1.28;100.00;99651.05;109610;1250;59786;-71
2023/03/17 07:10:33;;;;;;;48.30;32.00;;;;;;;1.37;100.00;99653.17;109458;1250;59915;-71
2023/03/17 07:13:01;;;;;;;49.10;33.50;;;;;;;1.44;100.00;99657.05;109401;1250;66963;-71
2023/03/17 07:15:30;;;;;;;47.20;32.20;;;;;;;1.49;100.00;99653.44;109584;1250;61162;-71
2023/03/17 07:17:57;;;;;;;51.90;35.50;;;;;;;1.57;100.00;99659.41;109608;1250;62480;-71
2023/03/17 07:20:23;;;;;;;51.60;37.10;;;;;;;1.66;100.00;99665.36;109564;1250;59833;-72
2023/03/17 07:22:50;;;;;;;49.40;35.10;;;;;;;1.75;100.00;99662.38;109617;1250;59803;-72
2023/03/17 07:25:17;;;;;;;58.20;34.10;;;;;;;1.84;100.00;99663.96;109607;1251;66494;-72
2023/03/17 07:27:45;;;;;;;48.60;34.50;;;;;;;1.92;100.00;99672.90;109616;1250;59993;-72
2023/03/17 07:30:13;;;;;;;51.00;34.80;;;;;;;2.03;100.00;99669.86;109624;1250;64183;-71
2023/03/17 07:32:40;;;;;;;48.00;33.60;;;;;;;2.14;100.00;99665.25;109625;1250;59969;-72
2023/03/17 07:35:07;;;;;;;46.70;36.10;;;;;;;2.23;100.00;99667.15;109363;1250;59813;-72
2023/03/17 07:37:34;;;;;;;42.10;31.00;;;;;;;2.31;100.00;99665.75;109659;1250;67860;-72
2023/03/17 07:40:01;;;;;;;49.20;32.20;;;;;;;2.40;100.00;99667.83;109607;1250;60070;-72
2023/03/17 07:42:27;;;;;;;49.20;36.80;;;;;;;2.53;100.00;99661.02;109633;1250;65273;-73
2023/03/17 07:44:54;;;;;;;44.10;34.80;;;;;;;2.65;99.79;99658.83;109647;1250;59947;-73
2023/03/17 07:47:21;;;;;;;37.20;29.80;;;;;;;2.74;98.69;99660.17;109648;1250;59840;-72
2023/03/17 07:49:47;;;;;;;44.20;28.60;;;;;;;2.83;98.26;99654.18;109649;1250;67538;-72
2023/03/17 07:52:14;;;;;;;40.20;29.10;;;;;;;2.91;97.25;99652.39;109416;1250;60884;-73
2023/03/17 07:54:41;;;;;;;39.70;30.00;;;;;;;2.99;96.42;99657.63;109628;1250;73974;-72
2023/03/17 07:57:08;;;;;;;40.10;28.00;;;;;;;3.08;96.52;99649.15;109618;1250;59855;-73
2023/03/17 07:59:34;;;;;;;38.80;28.20;;;;;;;3.17;96.08;99644.52;109694;1250;59841;-72
2023/03/17 08:02:01;;;;;;;41.40;28.70;;;;;;;3.27;95.81;99642.14;109530;1250;67501;-72
2023/03/17 08:04:28;;;;;;;38.70;27.50;;;;;;;3.37;94.55;99653.67;109665;1250;61387;-71
2023/03/17 08:06:54;;;;;;;38.50;28.60;;;;;;;3.44;94.48;99649.44;109651;1250;63973;-71
2023/03/17 08:09:21;;;;;;;39.70;26.50;;;;;;;3.53;94.04;99644.08;109603;1250;59826;-72
2023/03/17 08:11:48;;;;;;;36.10;25.70;;;;;;;3.64;94.09;99648.51;109661;1250;59759;-72
2023/03/17 08:14:15;;;;;;;32.30;24.60;;;;;;;3.76;93.32;99645.90;109636;1250;66764;-71
2023/03/17 08:16:41;;;;;;;30.50;22.30;;;;;;;3.86;92.10;99647.88;109656;1250;61025;-72
2023/03/17 08:19:09;;;;;;;31.30;21.30;;;;;;;3.94;90.63;99649.05;109600;1250;63808;-72
2023/03/17 08:21:36;;;;;;;29.50;20.60;;;;;;;4.02;89.80;99645.66;109609;1250;59771;-71
2023/03/17 08:24:04;;;;;;;29.20;21.10;;;;;;;4.13;89.18;99651.50;109364;1250;59813;-72
2023/03/17 08:26:31;;;;;;;28.50;19.80;;;;;;;4.21;88.34;99645.43;109664;1250;67774;-72
2023/03/17 08:28:57;;;;;;;26.70;19.00;;;;;;;4.31;88.19;99639.15;109417;1250;60283;-71
2023/03/17 08:31:24;;;;;;;28.50;19.90;;;;;;;4.44;87.70;99640.85;109651;1250;64744;-72
2023/03/17 08:33:53;;;;;;;29.90;20.50;;;;;;;4.58;87.34;99637.77;109410;1250;59849;-71
2023/03/17 08:36:20;;;;;;;27.40;20.30;;;;;;;4.73;86.45;99634.30;109614;1250;59712;-72
2023/03/17 08:38:48;;;;;;;27.10;20.20;;;;;;;4.85;85.80;99637.42;109628;1251;67564;-72
2023/03/17 08:41:17;;;;;;;28.40;20.40;;;;;;;4.97;85.39;99632.97;109676;1250;60009;-72
2023/03/17 08:43:45;;;;;;;25.20;18.10;;;;;;;5.14;84.06;99632.05;109631;1250;65280;-72
2023/03/17 08:46:18;;;;;;;29.20;19.50;;;;;;;5.27;83.74;99626.83;109593;1250;59818;-72
2023/03/17 08:48:47;;;;;;;25.80;18.60;;;;;;;5.41;83.43;99624.91;109616;1250;59765;-72
2023/03/17 08:51:14;;;;;;;44.50;26.20;;;;;;;5.52;82.34;99622.95;109630;1250;66920;-72
2023/03/17 08:53:41;;;;;;;49.00;31.10;;;;;;;5.63;81.36;99617.62;109604;1250;60012;-72
2023/03/17 08:56:08;;;;;;;28.00;19.00;;;;;;;5.76;81.20;99618.01;109593;1250;65263;-72
2023/03/17 08:58:38;;;;;;;27.70;19.50;;;;;;;5.86;80.13;99615.67;109635;1250;59819;-73
2023/03/17 09:01:05;;;;;;;;;;;;;;;5.94;79.77;99612.23;109665;1251;59843;-72
2023/03/17 09:03:32;;;;;;;23.70;16.20;;;;;;;6.03;79.06;99609.62;109628;1250;66853;-72
2023/03/17 09:05:59;;;;;;;24.60;15.90;;;;;;;6.12;78.17;99605.89;109572;1250;61000;-72
2023/03/17 09:08:26;;;;;;;20.70;13.90;;;;;;;6.25;78.53;99601.50;109605;1250;64190;-72
2023/03/17 09:10:53;;;;;;;21.60;14.30;;;;;;;6.40;76.96;99600.23;109647;1250;59751;-72
2023/03/17 09:13:20;;;;;;;20.20;14.60;;;;;;;6.49;76.58;99600.54;109658;1250;59736;-73
2023/03/17 09:15:47;;;;;;;23.00;14.40;;;;;;;6.59;76.11;99598.03;109643;1250;66926;-72
2023/03/17 09:18:14;;;;;;;24.30;16.00;;;;;;;6.71;75.40;99595.25;109574;1250;61205;-72
2023/03/17 09:20:41;;;;;;;18.00;14.60;;;;;;;6.83;75.01;99590.34;109605;1250;65006;-72
2023/03/17 09:23:09;;;;;;;20.20;14.50;;;;;;;6.94;74.30;99583.30;109627;1250;59721;-72
2023/03/17 09:25:37;;;;;;;19.50;14.40;;;;;;;7.02;73.13;99576.08;109657;1250;59988;-72
2023/03/17 09:28:06;;;;;;;23.60;14.90;;;;;;;7.11;73.00;99571.63;109604;1250;66473;-72
2023/03/17 09:30:32;;;;;;;18.20;13.90;;;;;;;7.24;72.99;99573.03;109608;1250;60940;-72
2023/03/17 09:32:59;;;;;;;14.10;11.20;;;;;;;7.39;72.75;99575.00;109627;1250;64160;-72
2023/03/17 09:35:27;;;;;;;17.50;12.20;;;;;;;7.54;71.85;99573.48;109599;1250;60559;-72
2023/03/17 09:37:53;;;;;;;14.00;11.10;;;;;;;7.65;70.79;99575.59;109625;1250;59861;-73
2023/03/17 09:40:26;;;;;;;16.50;11.70;;;;;;;7.74;69.78;99573.58;109351;1251;67862;-72
2023/03/17 09:43:08;;;;;;;18.00;11.20;;;;;;;7.82;69.00;99567.90;109588;1251;59848;-72
2023/03/17 09:45:40;;;;;;;14.20;9.60;;;;;;;7.94;68.89;99565.41;109554;1251;63695;-72
2023/03/17 09:48:43;;;;;;;15.40;10.50;;;;;;;8.12;68.62;99556.43;109512;1251;59940;-72
2023/03/17 09:51:13;;;;;;;17.40;12.50;;;;;;;8.29;67.93;99547.79;109524;1251;59666;-72
2023/03/17 09:53:53;;;;;;;19.00;12.40;;;;;;;8.46;68.09;99540.27;109553;1251;67535;-73
2023/03/17 09:56:19;;;;;;;;;;;;;;;8.60;65.57;99534.27;109573;1251;60894;-72
2023/03/17 09:58:53;;;;;;;17.40;11.70;;;;;;;8.71;65.45;99529.45;109561;1251;65155;-72
2023/03/17 10:01:21;;;;;;;14.40;9.70;;;;;;;8.85;64.99;99530.35;109550;1251;59798;-72
2023/03/17 10:03:49;;;;;;;14.40;10.30;;;;;;;8.96;63.78;99529.23;109580;1251;59740;-72
2023/03/17 10:06:37;;;;;;;12.60;9.30;;;;;;;9.10;63.84;99527.98;109526;1252;67565;-73
2023/03/17 10:09:09;;;;;;;13.20;8.60;;;;;;;9.19;61.71;99530.19;109531;1252;61146;-72
2023/03/17 10:11:44;;;;;;;13.00;8.40;;;;;;;9.27;60.86;99525.69;109566;1251;64184;-72
2023/03/17 10:14:37;;;;;;;14.10;8.80;;;;;;;9.30;60.37;99520.95;109493;1251;59809;-72
2023/03/17 10:17:20;;;;;;;12.30;8.50;;;;;;;9.44;60.30;99512.73;109018;1257;59770;-72
2023/03/17 10:20:27;;;;;;;10.80;8.40;;;;;;;9.56;59.28;99509.91;109016;1258;66813;-72
2023/03/17 10:22:57;;;;;;;10.00;7.10;;;;;;;9.62;58.43;99504.83;108496;1266;60822;-72
2023/03/17 10:25:28;;;;;;;13.40;8.40;;;;;;;9.76;58.82;99499.29;108538;1266;64798;-72
2023/03/17 10:28:03;;;;;;;11.40;7.40;;;;;;;9.93;57.57;99498.66;108344;1267;59871;-72
2023/03/17 10:30:32;;;;;;;8.50;6.50;;;;;;;9.97;56.07;99498.23;108545;1266;59886;-72
2023/03/17 10:33:02;;;;;;;10.70;7.30;;;;;;;10.02;55.92;99495.70;108419;1267;66095;-72
2023/03/17 10:35:34;;;;;;;8.60;6.10;;;;;;;10.14;56.26;99486.68;108561;1266;60105;-72
2023/03/17 10:38:16;;;;;;;9.20;6.40;;;;;;;10.33;56.04;99488.09;108524;1266;62782;-72
2023/03/17 10:40:53;;;;;;;8.60;6.50;;;;;;;10.47;54.73;99490.13;108494;1267;59880;-72
2023/03/17 10:43:21;;;;;;;9.50;6.80;;;;;;;10.48;54.06;99486.52;108536;1266;59876;-72
2023/03/17 10:46:01;;;;;;;9.90;6.50;;;;;;;10.60;55.03;99484.91;108530;1267;67664;-72
2023/03/17 10:48:28;;;;;;;;;;;;;;;10.77;53.68;99483.36;108547;1266;60305;-72
2023/03/17 10:50:58;;;;;;;8.20;5.60;;;;;;;10.80;53.05;99479.30;106222;1267;3030054;-72
2023/03/17 10:53:26;;;;;;;9.00;6.80;;;;;;;10.87;53.89;99480.44;108577;1267;60376;-72
2023/03/17 10:55:58;;;;;;;10.60;5.50;;;;;;;10.98;52.70;99481.36;108956;1259;59753;-73
2023/03/17 10:58:27;;;;;;;7.80;5.50;;;;;;;11.06;52.14;99474.33;108705;1259;66472;-72
2023/03/17 11:00:57;;;;;;;9.10;5.90;;;;;;;11.08;51.79;99473.29;109470;1251;60774;-73
2023/03/17 11:03:27;;;;;;;7.20;5.70;;;;;;;11.05;51.49;99474.02;109543;1251;62573;-73
2023/03/17 11:05:56;;;;;;;14.60;10.20;;;;;;;11.03;51.10;99469.72;109534;1251;59915;-73
2023/03/17 11:08:23;;;;;;;10.60;5.50;;;;;;;11.04;50.73;99468.60;109564;1251;59660;-73
2023/03/17 11:10:55;;;;;;;9.90;6.60;;;;;;;11.08;50.64;99465.81;109495;1251;66497;-73